sensor_id;sensor_type;location;lat;lon;timestamp;P1;durP1;ratioP1;P2;durP2;ratioP2
68509;SDS011;55512;50.102;19.958;2023-02-20T00:02:13;13.80;;;6.60;;
68509;SDS011;55512;50.102;19.958;2023-02-20T00:04:39;14.10;;;6.50;;
68509;SDS011;55512;50.102;19.958;2023-02-20T00:07:05;13.90;;;6.30;;
68509;SDS011;55512;50.102;19.958;2023-02-20T00:09:30;16.40;;;6.70;;
68509;SDS011;55512;50.102;19.958;2023-02-20T00:11:55;13.70;;;6.00;;
68509;SDS011;55512;50.102;19.958;2023-02-20T00:14:21;13.70;;;6.30;;
68509;SDS011;55512;50.102;19.958;2023-02-20T00:16:47;7.90;;;3.80;;
68509;SDS011;55512;50.102;19.958;2023-02-20T00:19:13;10.20;;;4.10;;
68509;SDS011;55512;50.102;19.958;2023-02-20T00:21:48;14.40;;;6.20;;
68509;SDS011;55512;50.102;19.958;2023-02-20T00:24:16;11.10;;;4.90;;
68509;SDS011;55512;50.102;19.958;2023-02-20T00:26:51;12.00;;;5.50;;
68509;SDS011;55512;50.102;19.958;2023-02-20T00:29:19;12.20;;;6.00;;
68509;SDS011;55512;50.102;19.958;2023-02-20T00:31:54;11.80;;;5.20;;
68509;SDS011;55512;50.102;19.958;2023-02-20T00:34:22;11.60;;;5.80;;
68509;SDS011;55512;50.102;19.958;2023-02-20T00:36:50;11.60;;;4.80;;
68509;SDS011;55512;50.102;19.958;2023-02-20T00:39:16;13.70;;;5.90;;
68509;SDS011;55512;50.102;19.958;2023-02-20T00:41:42;14.20;;;5.60;;
68509;SDS011;55512;50.102;19.958;2023-02-20T00:44:07;12.50;;;6.20;;
68509;SDS011;55512;50.102;19.958;2023-02-20T00:46:33;11.80;;;5.20;;
68509;SDS011;55512;50.102;19.958;2023-02-20T00:48:59;15.20;;;6.80;;
68509;SDS011;55512;50.102;19.958;2023-02-20T00:51:25;13.10;;;6.10;;
68509;SDS011;55512;50.102;19.958;2023-02-20T00:53:51;15.30;;;6.50;;
68509;SDS011;55512;50.102;19.958;2023-02-20T00:56:16;13.20;;;6.70;;
68509;SDS011;55512;50.102;19.958;2023-02-20T00:58:42;14.20;;;5.80;;
68509;SDS011;55512;50.102;19.958;2023-02-20T01:01:08;12.60;;;5.70;;
68509;SDS011;55512;50.102;19.958;2023-02-20T01:03:33;11.70;;;5.50;;
68509;SDS011;55512;50.102;19.958;2023-02-20T01:05:59;14.40;;;6.90;;
68509;SDS011;55512;50.102;19.958;2023-02-20T01:08:25;14.20;;;6.50;;
68509;SDS011;55512;50.102;19.958;2023-02-20T01:10:50;13.50;;;6.00;;
68509;SDS011;55512;50.102;19.958;2023-02-20T01:13:16;13.00;;;5.80;;
68509;SDS011;55512;50.102;19.958;2023-02-20T01:15:42;13.40;;;5.70;;
68509;SDS011;55512;50.102;19.958;2023-02-20T01:18:07;13.00;;;5.60;;
68509;SDS011;55512;50.102;19.958;2023-02-20T01:20:33;12.30;;;5.10;;
68509;SDS011;55512;50.102;19.958;2023-02-20T01:22:59;6.80;;;2.80;;
68509;SDS011;55512;50.102;19.958;2023-02-20T01:25:24;10.40;;;4.30;;
68509;SDS011;55512;50.102;19.958;2023-02-20T01:27:50;13.30;;;5.80;;
68509;SDS011;55512;50.102;19.958;2023-02-20T01:30:16;11.90;;;5.00;;
68509;SDS011;55512;50.102;19.958;2023-02-20T01:32:41;15.10;;;5.50;;
68509;SDS011;55512;50.102;19.958;2023-02-20T01:35:07;13.20;;;5.00;;
68509;SDS011;55512;50.102;19.958;2023-02-20T01:37:33;12.40;;;4.70;;
68509;SDS011;55512;50.102;19.958;2023-02-20T01:39:59;12.50;;;4.30;;
68509;SDS011;55512;50.102;19.958;2023-02-20T01:42:29;13.50;;;5.00;;
68509;SDS011;55512;50.102;19.958;2023-02-20T01:45:16;12.30;;;4.90;;
68509;SDS011;55512;50.102;19.958;2023-02-20T01:47:43;11.40;;;4.90;;
68509;SDS011;55512;50.102;19.958;2023-02-20T01:50:09;11.90;;;4.60;;
68509;SDS011;55512;50.102;19.958;2023-02-20T01:52:36;10.40;;;4.70;;
68509;SDS011;55512;50.102;19.958;2023-02-20T01:55:10;11.30;;;5.20;;
68509;SDS011;55512;50.102;19.958;2023-02-20T01:57:44;10.00;;;4.60;;
68509;SDS011;55512;50.102;19.958;2023-02-20T02:00:18;11.80;;;4.90;;
68509;SDS011;55512;50.102;19.958;2023-02-20T02:03:12;11.90;;;4.90;;
68509;SDS011;55512;50.102;19.958;2023-02-20T02:05:45;10.10;;;4.10;;
68509;SDS011;55512;50.102;19.958;2023-02-20T02:08:14;10.80;;;4.20;;
68509;SDS011;55512;50.102;19.958;2023-02-20T02:10:50;11.60;;;4.60;;
68509;SDS011;55512;50.102;19.958;2023-02-20T02:13:21;8.90;;;4.20;;
68509;SDS011;55512;50.102;19.958;2023-02-20T02:15:51;11.80;;;4.50;;
68509;SDS011;55512;50.102;19.958;2023-02-20T02:18:35;8.20;;;3.50;;
68509;SDS011;55512;50.102;19.958;2023-02-20T02:37:02;9.90;;;4.20;;
68509;SDS011;55512;50.102;19.958;2023-02-20T02:44:53;10.90;;;4.10;;
68509;SDS011;55512;50.102;19.958;2023-02-20T02:47:54;11.60;;;4.20;;
68509;SDS011;55512;50.102;19.958;2023-02-20T02:50:27;11.40;;;3.90;;
68509;SDS011;55512;50.102;19.958;2023-02-20T02:52:57;11.10;;;3.70;;
68509;SDS011;55512;50.102;19.958;2023-02-20T02:55:26;9.30;;;3.10;;
68509;SDS011;55512;50.102;19.958;2023-02-20T02:57:54;13.10;;;4.60;;
68509;SDS011;55512;50.102;19.958;2023-02-20T03:03:08;9.80;;;4.70;;
68509;SDS011;55512;50.102;19.958;2023-02-20T03:05:44;7.00;;;3.00;;
68509;SDS011;55512;50.102;19.958;2023-02-20T03:08:26;13.50;;;4.60;;
68509;SDS011;55512;50.102;19.958;2023-02-20T03:11:04;9.30;;;4.20;;
68509;SDS011;55512;50.102;19.958;2023-02-20T03:13:42;12.30;;;4.80;;
68509;SDS011;55512;50.102;19.958;2023-02-20T03:16:44;10.10;;;4.30;;
68509;SDS011;55512;50.102;19.958;2023-02-20T03:19:24;10.40;;;4.10;;
68509;SDS011;55512;50.102;19.958;2023-02-20T03:21:55;9.30;;;3.90;;
68509;SDS011;55512;50.102;19.958;2023-02-20T03:24:24;11.80;;;4.20;;
68509;SDS011;55512;50.102;19.958;2023-02-20T03:26:55;9.70;;;3.70;;
68509;SDS011;55512;50.102;19.958;2023-02-20T03:29:31;11.70;;;4.40;;
68509;SDS011;55512;50.102;19.958;2023-02-20T03:32:04;10.30;;;3.50;;
68509;SDS011;55512;50.102;19.958;2023-02-20T03:34:53;7.90;;;2.90;;
68509;SDS011;55512;50.102;19.958;2023-02-20T03:37:41;9.70;;;3.70;;
68509;SDS011;55512;50.102;19.958;2023-02-20T03:40:28;9.90;;;3.90;;
68509;SDS011;55512;50.102;19.958;2023-02-20T03:43:16;11.10;;;4.40;;
68509;SDS011;55512;50.102;19.958;2023-02-20T03:45:52;7.50;;;2.40;;
68509;SDS011;55512;50.102;19.958;2023-02-20T03:48:29;10.60;;;3.70;;
68509;SDS011;55512;50.102;19.958;2023-02-20T03:51:02;10.90;;;4.00;;
68509;SDS011;55512;50.102;19.958;2023-02-20T03:53:46;11.50;;;3.90;;
68509;SDS011;55512;50.102;19.958;2023-02-20T03:56:17;9.90;;;4.40;;
68509;SDS011;55512;50.102;19.958;2023-02-20T03:58:50;14.40;;;5.10;;
68509;SDS011;55512;50.102;19.958;2023-02-20T04:01:21;10.10;;;4.50;;
68509;SDS011;55512;50.102;19.958;2023-02-20T04:03:51;10.50;;;4.80;;
68509;SDS011;55512;50.102;19.958;2023-02-20T04:06:21;10.60;;;4.50;;
68509;SDS011;55512;50.102;19.958;2023-02-20T04:08:58;9.30;;;4.60;;
68509;SDS011;55512;50.102;19.958;2023-02-20T04:11:40;10.90;;;4.60;;
68509;SDS011;55512;50.102;19.958;2023-02-20T04:14:11;11.90;;;4.10;;
68509;SDS011;55512;50.102;19.958;2023-02-20T04:16:44;12.50;;;4.60;;
68509;SDS011;55512;50.102;19.958;2023-02-20T04:19:14;9.20;;;3.80;;
68509;SDS011;55512;50.102;19.958;2023-02-20T04:22:01;11.60;;;4.50;;
68509;SDS011;55512;50.102;19.958;2023-02-20T04:25:00;10.80;;;4.50;;
68509;SDS011;55512;50.102;19.958;2023-02-20T04:27:31;10.00;;;4.00;;
68509;SDS011;55512;50.102;19.958;2023-02-20T04:29:57;11.00;;;4.20;;
68509;SDS011;55512;50.102;19.958;2023-02-20T04:32:23;8.70;;;3.80;;
68509;SDS011;55512;50.102;19.958;2023-02-20T04:34:48;10.40;;;3.70;;
68509;SDS011;55512;50.102;19.958;2023-02-20T04:37:16;9.90;;;4.50;;
68509;SDS011;55512;50.102;19.958;2023-02-20T04:39:44;10.20;;;4.00;;
68509;SDS011;55512;50.102;19.958;2023-02-20T04:42:10;12.00;;;3.90;;
68509;SDS011;55512;50.102;19.958;2023-02-20T04:44:36;8.60;;;3.90;;
68509;SDS011;55512;50.102;19.958;2023-02-20T04:47:04;7.70;;;3.50;;
68509;SDS011;55512;50.102;19.958;2023-02-20T04:49:31;8.60;;;3.90;;
68509;SDS011;55512;50.102;19.958;2023-02-20T04:51:57;9.90;;;3.50;;
68509;SDS011;55512;50.102;19.958;2023-02-20T04:54:24;14.30;;;4.40;;
68509;SDS011;55512;50.102;19.958;2023-02-20T04:56:50;6.70;;;2.90;;
68509;SDS011;55512;50.102;19.958;2023-02-20T04:59:16;7.90;;;3.90;;
68509;SDS011;55512;50.102;19.958;2023-02-20T05:01:42;7.90;;;3.60;;
68509;SDS011;55512;50.102;19.958;2023-02-20T05:04:15;7.70;;;3.60;;
68509;SDS011;55512;50.102;19.958;2023-02-20T05:06:50;8.60;;;3.20;;
68509;SDS011;55512;50.102;19.958;2023-02-20T05:09:18;8.20;;;3.00;;
68509;SDS011;55512;50.102;19.958;2023-02-20T05:11:44;9.90;;;3.60;;
68509;SDS011;55512;50.102;19.958;2023-02-20T05:14:10;11.40;;;3.40;;
68509;SDS011;55512;50.102;19.958;2023-02-20T05:16:37;7.90;;;3.40;;
68509;SDS011;55512;50.102;19.958;2023-02-20T05:19:04;7.70;;;3.10;;
68509;SDS011;55512;50.102;19.958;2023-02-20T05:21:30;10.20;;;3.40;;
68509;SDS011;55512;50.102;19.958;2023-02-20T05:24:14;9.30;;;3.40;;
68509;SDS011;55512;50.102;19.958;2023-02-20T05:26:40;6.90;;;3.10;;
68509;SDS011;55512;50.102;19.958;2023-02-20T05:29:06;9.10;;;3.70;;
68509;SDS011;55512;50.102;19.958;2023-02-20T05:31:34;8.60;;;3.20;;
68509;SDS011;55512;50.102;19.958;2023-02-20T05:33:59;9.50;;;3.70;;
68509;SDS011;55512;50.102;19.958;2023-02-20T05:36:25;10.10;;;3.30;;
68509;SDS011;55512;50.102;19.958;2023-02-20T05:38:51;10.20;;;3.20;;
68509;SDS011;55512;50.102;19.958;2023-02-20T05:41:17;8.60;;;3.20;;
68509;SDS011;55512;50.102;19.958;2023-02-20T05:43:44;8.90;;;3.40;;
68509;SDS011;55512;50.102;19.958;2023-02-20T05:46:10;9.20;;;3.10;;
68509;SDS011;55512;50.102;19.958;2023-02-20T05:48:36;8.40;;;3.00;;
68509;SDS011;55512;50.102;19.958;2023-02-20T05:51:02;8.00;;;2.90;;
68509;SDS011;55512;50.102;19.958;2023-02-20T05:53:28;8.20;;;2.90;;
68509;SDS011;55512;50.102;19.958;2023-02-20T05:55:55;8.60;;;3.80;;
68509;SDS011;55512;50.102;19.958;2023-02-20T05:58:21;8.10;;;3.30;;
68509;SDS011;55512;50.102;19.958;2023-02-20T06:00:47;8.90;;;3.50;;
68509;SDS011;55512;50.102;19.958;2023-02-20T06:03:14;10.50;;;3.50;;
68509;SDS011;55512;50.102;19.958;2023-02-20T06:05:40;11.30;;;3.60;;
68509;SDS011;55512;50.102;19.958;2023-02-20T06:08:06;9.60;;;3.80;;
68509;SDS011;55512;50.102;19.958;2023-02-20T06:10:32;10.90;;;4.20;;
68509;SDS011;55512;50.102;19.958;2023-02-20T06:12:57;9.30;;;3.60;;
68509;SDS011;55512;50.102;19.958;2023-02-20T06:15:23;9.60;;;3.40;;
68509;SDS011;55512;50.102;19.958;2023-02-20T06:17:49;10.60;;;3.40;;
68509;SDS011;55512;50.102;19.958;2023-02-20T06:20:15;10.40;;;3.30;;
68509;SDS011;55512;50.102;19.958;2023-02-20T06:22:41;9.80;;;3.90;;
68509;SDS011;55512;50.102;19.958;2023-02-20T06:25:07;9.80;;;3.50;;
68509;SDS011;55512;50.102;19.958;2023-02-20T06:27:32;12.10;;;3.40;;
68509;SDS011;55512;50.102;19.958;2023-02-20T06:29:58;9.70;;;3.70;;
68509;SDS011;55512;50.102;19.958;2023-02-20T06:32:23;8.20;;;3.60;;
68509;SDS011;55512;50.102;19.958;2023-02-20T06:34:49;10.10;;;3.20;;
68509;SDS011;55512;50.102;19.958;2023-02-20T06:37:15;8.50;;;3.10;;
68509;SDS011;55512;50.102;19.958;2023-02-20T06:39:41;9.50;;;3.70;;
68509;SDS011;55512;50.102;19.958;2023-02-20T06:42:10;10.20;;;3.60;;
68509;SDS011;55512;50.102;19.958;2023-02-20T06:44:36;9.60;;;3.90;;
68509;SDS011;55512;50.102;19.958;2023-02-20T06:47:02;9.70;;;3.70;;
68509;SDS011;55512;50.102;19.958;2023-02-20T06:49:33;8.60;;;3.30;;
68509;SDS011;55512;50.102;19.958;2023-02-20T06:52:00;8.90;;;3.70;;
68509;SDS011;55512;50.102;19.958;2023-02-20T06:54:26;9.90;;;4.00;;
68509;SDS011;55512;50.102;19.958;2023-02-20T06:56:51;7.90;;;3.30;;
68509;SDS011;55512;50.102;19.958;2023-02-20T06:59:17;10.20;;;4.00;;
68509;SDS011;55512;50.102;19.958;2023-02-20T07:01:43;11.90;;;4.80;;
68509;SDS011;55512;50.102;19.958;2023-02-20T07:04:21;9.20;;;4.00;;
68509;SDS011;55512;50.102;19.958;2023-02-20T07:06:49;9.90;;;4.40;;
68509;SDS011;55512;50.102;19.958;2023-02-20T07:09:15;10.60;;;4.70;;
68509;SDS011;55512;50.102;19.958;2023-02-20T07:11:41;12.60;;;5.30;;
68509;SDS011;55512;50.102;19.958;2023-02-20T07:14:08;11.70;;;5.30;;
68509;SDS011;55512;50.102;19.958;2023-02-20T07:16:33;11.40;;;3.90;;
68509;SDS011;55512;50.102;19.958;2023-02-20T07:18:59;10.50;;;4.70;;
68509;SDS011;55512;50.102;19.958;2023-02-20T07:21:25;9.90;;;4.20;;
68509;SDS011;55512;50.102;19.958;2023-02-20T07:23:51;8.70;;;4.70;;
68509;SDS011;55512;50.102;19.958;2023-02-20T07:26:27;11.00;;;4.40;;
68509;SDS011;55512;50.102;19.958;2023-02-20T07:28:55;10.40;;;3.40;;
68509;SDS011;55512;50.102;19.958;2023-02-20T07:31:28;11.10;;;4.50;;
68509;SDS011;55512;50.102;19.958;2023-02-20T07:33:53;11.60;;;4.70;;
68509;SDS011;55512;50.102;19.958;2023-02-20T07:36:19;13.20;;;4.90;;
68509;SDS011;55512;50.102;19.958;2023-02-20T07:38:59;9.90;;;4.20;;
68509;SDS011;55512;50.102;19.958;2023-02-20T07:41:28;10.20;;;4.80;;
68509;SDS011;55512;50.102;19.958;2023-02-20T07:44:00;11.50;;;5.30;;
68509;SDS011;55512;50.102;19.958;2023-02-20T07:46:25;9.70;;;5.30;;
68509;SDS011;55512;50.102;19.958;2023-02-20T07:48:51;13.50;;;5.60;;
68509;SDS011;55512;50.102;19.958;2023-02-20T07:51:17;12.10;;;5.20;;
68509;SDS011;55512;50.102;19.958;2023-02-20T07:53:48;12.20;;;5.70;;
68509;SDS011;55512;50.102;19.958;2023-02-20T07:56:15;11.70;;;5.10;;
68509;SDS011;55512;50.102;19.958;2023-02-20T07:58:40;9.40;;;4.40;;
68509;SDS011;55512;50.102;19.958;2023-02-20T08:01:06;11.10;;;5.10;;
68509;SDS011;55512;50.102;19.958;2023-02-20T08:03:31;10.50;;;3.70;;
68509;SDS011;55512;50.102;19.958;2023-02-20T08:05:57;9.00;;;4.80;;
68509;SDS011;55512;50.102;19.958;2023-02-20T08:08:22;9.60;;;3.90;;
68509;SDS011;55512;50.102;19.958;2023-02-20T08:10:50;10.50;;;4.80;;
68509;SDS011;55512;50.102;19.958;2023-02-20T08:13:16;9.70;;;4.40;;
68509;SDS011;55512;50.102;19.958;2023-02-20T08:15:42;9.10;;;4.70;;
68509;SDS011;55512;50.102;19.958;2023-02-20T08:18:09;8.60;;;4.20;;
68509;SDS011;55512;50.102;19.958;2023-02-20T08:20:35;11.90;;;4.30;;
68509;SDS011;55512;50.102;19.958;2023-02-20T08:23:01;12.90;;;3.90;;
68509;SDS011;55512;50.102;19.958;2023-02-20T08:25:26;7.40;;;3.40;;
68509;SDS011;55512;50.102;19.958;2023-02-20T08:27:51;8.60;;;3.70;;
68509;SDS011;55512;50.102;19.958;2023-02-20T08:30:21;8.70;;;3.80;;
68509;SDS011;55512;50.102;19.958;2023-02-20T08:32:53;8.80;;;2.60;;
68509;SDS011;55512;50.102;19.958;2023-02-20T08:35:20;8.60;;;3.20;;
68509;SDS011;55512;50.102;19.958;2023-02-20T08:37:48;7.00;;;3.50;;
68509;SDS011;55512;50.102;19.958;2023-02-20T08:40:14;9.00;;;3.30;;
68509;SDS011;55512;50.102;19.958;2023-02-20T08:42:40;9.90;;;3.80;;
68509;SDS011;55512;50.102;19.958;2023-02-20T08:45:07;7.30;;;3.10;;
68509;SDS011;55512;50.102;19.958;2023-02-20T08:47:33;7.20;;;2.80;;
68509;SDS011;55512;50.102;19.958;2023-02-20T08:49:59;11.80;;;3.90;;
68509;SDS011;55512;50.102;19.958;2023-02-20T08:52:24;8.10;;;3.20;;
68509;SDS011;55512;50.102;19.958;2023-02-20T08:54:50;8.30;;;3.60;;
68509;SDS011;55512;50.102;19.958;2023-02-20T08:57:17;9.20;;;3.20;;
68509;SDS011;55512;50.102;19.958;2023-02-20T08:59:43;7.70;;;2.90;;
68509;SDS011;55512;50.102;19.958;2023-02-20T09:02:21;8.20;;;3.10;;
68509;SDS011;55512;50.102;19.958;2023-02-20T09:04:49;8.50;;;3.10;;
68509;SDS011;55512;50.102;19.958;2023-02-20T09:07:14;7.90;;;3.10;;
68509;SDS011;55512;50.102;19.958;2023-02-20T09:09:40;10.00;;;3.30;;
68509;SDS011;55512;50.102;19.958;2023-02-20T09:12:06;8.30;;;3.20;;
68509;SDS011;55512;50.102;19.958;2023-02-20T09:14:33;5.30;;;2.50;;
68509;SDS011;55512;50.102;19.958;2023-02-20T09:16:59;7.00;;;2.90;;
68509;SDS011;55512;50.102;19.958;2023-02-20T09:19:24;8.60;;;3.60;;
68509;SDS011;55512;50.102;19.958;2023-02-20T09:21:50;10.30;;;3.40;;
68509;SDS011;55512;50.102;19.958;2023-02-20T09:24:16;7.40;;;2.90;;
68509;SDS011;55512;50.102;19.958;2023-02-20T09:26:42;9.10;;;3.90;;
68509;SDS011;55512;50.102;19.958;2023-02-20T09:29:07;7.70;;;3.00;;
68509;SDS011;55512;50.102;19.958;2023-02-20T09:31:33;7.50;;;2.90;;
68509;SDS011;55512;50.102;19.958;2023-02-20T09:33:58;7.60;;;3.30;;
68509;SDS011;55512;50.102;19.958;2023-02-20T09:36:25;7.50;;;3.00;;
68509;SDS011;55512;50.102;19.958;2023-02-20T09:38:51;8.40;;;3.40;;
68509;SDS011;55512;50.102;19.958;2023-02-20T09:41:25;8.20;;;3.10;;
68509;SDS011;55512;50.102;19.958;2023-02-20T09:47:07;6.80;;;3.00;;
68509;SDS011;55512;50.102;19.958;2023-02-20T09:49:52;7.30;;;3.50;;
68509;SDS011;55512;50.102;19.958;2023-02-20T09:52:20;7.10;;;2.70;;
68509;SDS011;55512;50.102;19.958;2023-02-20T09:55:11;10.80;;;3.90;;
68509;SDS011;55512;50.102;19.958;2023-02-20T09:57:40;6.90;;;3.20;;
68509;SDS011;55512;50.102;19.958;2023-02-20T10:00:13;7.40;;;2.80;;
68509;SDS011;55512;50.102;19.958;2023-02-20T10:03:23;7.50;;;3.40;;
68509;SDS011;55512;50.102;19.958;2023-02-20T10:06:00;7.40;;;2.90;;
68509;SDS011;55512;50.102;19.958;2023-02-20T10:08:27;7.30;;;3.10;;
68509;SDS011;55512;50.102;19.958;2023-02-20T10:10:56;5.60;;;2.40;;
68509;SDS011;55512;50.102;19.958;2023-02-20T10:19:32;8.50;;;3.50;;
68509;SDS011;55512;50.102;19.958;2023-02-20T10:22:17;6.00;;;2.20;;
68509;SDS011;55512;50.102;19.958;2023-02-20T10:25:09;7.90;;;2.90;;
68509;SDS011;55512;50.102;19.958;2023-02-20T10:33:48;7.80;;;3.10;;
68509;SDS011;55512;50.102;19.958;2023-02-20T10:36:39;7.10;;;2.90;;
68509;SDS011;55512;50.102;19.958;2023-02-20T10:39:12;6.60;;;2.60;;
68509;SDS011;55512;50.102;19.958;2023-02-20T10:44:32;8.70;;;3.50;;
68509;SDS011;55512;50.102;19.958;2023-02-20T10:56:25;8.80;;;3.10;;
68509;SDS011;55512;50.102;19.958;2023-02-20T10:59:24;6.80;;;2.90;;
68509;SDS011;55512;50.102;19.958;2023-02-20T11:01:54;7.20;;;3.30;;
68509;SDS011;55512;50.102;19.958;2023-02-20T11:04:34;7.00;;;2.90;;
68509;SDS011;55512;50.102;19.958;2023-02-20T11:07:06;7.10;;;3.10;;
68509;SDS011;55512;50.102;19.958;2023-02-20T11:09:34;6.70;;;2.70;;
68509;SDS011;55512;50.102;19.958;2023-02-20T11:12:00;7.10;;;3.10;;
68509;SDS011;55512;50.102;19.958;2023-02-20T11:14:42;8.10;;;3.10;;
68509;SDS011;55512;50.102;19.958;2023-02-20T11:17:16;6.10;;;2.10;;
68509;SDS011;55512;50.102;19.958;2023-02-20T11:19:56;6.80;;;2.80;;
68509;SDS011;55512;50.102;19.958;2023-02-20T11:25:34;6.20;;;2.40;;
68509;SDS011;55512;50.102;19.958;2023-02-20T11:28:09;4.50;;;1.50;;
68509;SDS011;55512;50.102;19.958;2023-02-20T11:30:43;5.50;;;2.50;;
68509;SDS011;55512;50.102;19.958;2023-02-20T11:33:16;5.40;;;2.00;;
68509;SDS011;55512;50.102;19.958;2023-02-20T11:35:49;5.20;;;2.10;;
68509;SDS011;55512;50.102;19.958;2023-02-20T11:38:26;5.90;;;2.40;;
68509;SDS011;55512;50.102;19.958;2023-02-20T11:43:24;5.60;;;1.80;;
68509;SDS011;55512;50.102;19.958;2023-02-20T11:46:19;4.60;;;1.60;;
68509;SDS011;55512;50.102;19.958;2023-02-20T11:54:08;5.30;;;2.20;;
68509;SDS011;55512;50.102;19.958;2023-02-20T11:56:37;5.90;;;2.20;;
68509;SDS011;55512;50.102;19.958;2023-02-20T11:59:28;5.30;;;2.00;;
68509;SDS011;55512;50.102;19.958;2023-02-20T12:04:40;5.70;;;2.20;;
68509;SDS011;55512;50.102;19.958;2023-02-20T12:07:54;6.40;;;2.60;;
68509;SDS011;55512;50.102;19.958;2023-02-20T12:13:06;7.80;;;2.60;;
68509;SDS011;55512;50.102;19.958;2023-02-20T12:15:37;6.60;;;2.50;;
68509;SDS011;55512;50.102;19.958;2023-02-20T12:20:45;8.00;;;3.30;;
68509;SDS011;55512;50.102;19.958;2023-02-20T12:23:21;6.90;;;2.90;;
68509;SDS011;55512;50.102;19.958;2023-02-20T12:46:30;8.50;;;4.10;;
68509;SDS011;55512;50.102;19.958;2023-02-20T12:49:18;8.80;;;4.00;;
68509;SDS011;55512;50.102;19.958;2023-02-20T12:51:57;8.00;;;4.30;;
68509;SDS011;55512;50.102;19.958;2023-02-20T12:57:40;8.30;;;4.60;;
68509;SDS011;55512;50.102;19.958;2023-02-20T13:01:19;7.40;;;4.30;;
68509;SDS011;55512;50.102;19.958;2023-02-20T13:03:34;9.10;;;4.50;;
68509;SDS011;55512;50.102;19.958;2023-02-20T13:06:00;9.60;;;4.50;;
68509;SDS011;55512;50.102;19.958;2023-02-20T13:08:26;8.60;;;4.00;;
68509;SDS011;55512;50.102;19.958;2023-02-20T13:10:59;7.60;;;4.10;;
68509;SDS011;55512;50.102;19.958;2023-02-20T13:13:37;7.20;;;2.90;;
68509;SDS011;55512;50.102;19.958;2023-02-20T13:16:19;7.60;;;3.30;;
68509;SDS011;55512;50.102;19.958;2023-02-20T13:19:03;8.30;;;4.10;;
68509;SDS011;55512;50.102;19.958;2023-02-20T13:21:40;9.30;;;4.30;;
68509;SDS011;55512;50.102;19.958;2023-02-20T13:26:48;7.90;;;3.80;;
68509;SDS011;55512;50.102;19.958;2023-02-20T13:29:37;9.30;;;3.60;;
68509;SDS011;55512;50.102;19.958;2023-02-20T13:34:41;8.40;;;4.20;;
68509;SDS011;55512;50.102;19.958;2023-02-20T13:45:45;10.90;;;3.90;;
68509;SDS011;55512;50.102;19.958;2023-02-20T13:53:42;7.70;;;3.60;;
68509;SDS011;55512;50.102;19.958;2023-02-20T13:56:26;7.30;;;3.30;;
68509;SDS011;55512;50.102;19.958;2023-02-20T13:58:56;8.20;;;3.60;;
68509;SDS011;55512;50.102;19.958;2023-02-20T14:01:23;8.20;;;3.70;;
68509;SDS011;55512;50.102;19.958;2023-02-20T14:03:59;8.30;;;3.20;;
68509;SDS011;55512;50.102;19.958;2023-02-20T14:06:29;7.40;;;3.20;;
68509;SDS011;55512;50.102;19.958;2023-02-20T14:09:09;8.20;;;4.00;;
68509;SDS011;55512;50.102;19.958;2023-02-20T14:11:40;8.90;;;4.10;;
68509;SDS011;55512;50.102;19.958;2023-02-20T14:14:15;7.10;;;3.20;;
68509;SDS011;55512;50.102;19.958;2023-02-20T14:16:50;7.30;;;3.50;;
68509;SDS011;55512;50.102;19.958;2023-02-20T14:19:26;7.70;;;3.30;;
68509;SDS011;55512;50.102;19.958;2023-02-20T14:21:54;9.40;;;3.60;;
68509;SDS011;55512;50.102;19.958;2023-02-20T14:24:27;7.40;;;3.60;;
68509;SDS011;55512;50.102;19.958;2023-02-20T14:26:55;7.00;;;3.50;;
68509;SDS011;55512;50.102;19.958;2023-02-20T14:31:55;7.50;;;4.10;;
68509;SDS011;55512;50.102;19.958;2023-02-20T14:34:50;8.00;;;3.50;;
68509;SDS011;55512;50.102;19.958;2023-02-20T14:40:59;7.40;;;3.30;;
68509;SDS011;55512;50.102;19.958;2023-02-20T14:43:26;8.10;;;3.70;;
68509;SDS011;55512;50.102;19.958;2023-02-20T14:46:25;8.40;;;3.70;;
68509;SDS011;55512;50.102;19.958;2023-02-20T14:49:16;7.40;;;3.30;;
68509;SDS011;55512;50.102;19.958;2023-02-20T14:51:48;8.00;;;3.50;;
68509;SDS011;55512;50.102;19.958;2023-02-20T14:54:23;8.40;;;3.80;;
68509;SDS011;55512;50.102;19.958;2023-02-20T14:56:51;8.60;;;3.90;;
68509;SDS011;55512;50.102;19.958;2023-02-20T14:59:31;8.30;;;3.40;;
68509;SDS011;55512;50.102;19.958;2023-02-20T15:02:01;8.20;;;3.50;;
68509;SDS011;55512;50.102;19.958;2023-02-20T15:04:51;7.60;;;3.40;;
68509;SDS011;55512;50.102;19.958;2023-02-20T15:07:22;7.70;;;3.40;;
68509;SDS011;55512;50.102;19.958;2023-02-20T15:09:53;6.40;;;3.30;;
68509;SDS011;55512;50.102;19.958;2023-02-20T15:15:05;8.80;;;3.60;;
68509;SDS011;55512;50.102;19.958;2023-02-20T15:17:36;8.80;;;3.50;;
68509;SDS011;55512;50.102;19.958;2023-02-20T15:25:40;8.10;;;3.30;;
68509;SDS011;55512;50.102;19.958;2023-02-20T15:28:26;7.10;;;3.20;;
68509;SDS011;55512;50.102;19.958;2023-02-20T15:33:50;8.90;;;3.90;;
68509;SDS011;55512;50.102;19.958;2023-02-20T15:36:23;9.50;;;3.50;;
68509;SDS011;55512;50.102;19.958;2023-02-20T15:38:54;9.60;;;4.00;;
68509;SDS011;55512;50.102;19.958;2023-02-20T15:41:21;6.40;;;2.30;;
68509;SDS011;55512;50.102;19.958;2023-02-20T15:43:47;7.70;;;3.40;;
68509;SDS011;55512;50.102;19.958;2023-02-20T15:46:14;8.10;;;3.50;;
68509;SDS011;55512;50.102;19.958;2023-02-20T15:48:41;8.10;;;3.20;;
68509;SDS011;55512;50.102;19.958;2023-02-20T15:51:08;6.70;;;3.20;;
68509;SDS011;55512;50.102;19.958;2023-02-20T15:53:35;8.30;;;3.60;;
68509;SDS011;55512;50.102;19.958;2023-02-20T15:56:02;8.00;;;3.40;;
68509;SDS011;55512;50.102;19.958;2023-02-20T15:58:31;7.90;;;3.40;;
68509;SDS011;55512;50.102;19.958;2023-02-20T16:01:00;7.40;;;2.90;;
68509;SDS011;55512;50.102;19.958;2023-02-20T16:03:27;7.00;;;2.90;;
68509;SDS011;55512;50.102;19.958;2023-02-20T16:05:56;6.10;;;2.50;;
68509;SDS011;55512;50.102;19.958;2023-02-20T16:08:23;7.70;;;3.10;;
68509;SDS011;55512;50.102;19.958;2023-02-20T16:10:51;6.70;;;2.80;;
68509;SDS011;55512;50.102;19.958;2023-02-20T16:13:30;8.10;;;2.80;;
68509;SDS011;55512;50.102;19.958;2023-02-20T16:16:07;7.80;;;3.00;;
68509;SDS011;55512;50.102;19.958;2023-02-20T16:18:41;6.10;;;2.50;;
68509;SDS011;55512;50.102;19.958;2023-02-20T16:21:09;6.90;;;2.10;;
68509;SDS011;55512;50.102;19.958;2023-02-20T16:23:37;7.40;;;2.80;;
68509;SDS011;55512;50.102;19.958;2023-02-20T16:26:05;7.10;;;2.70;;
68509;SDS011;55512;50.102;19.958;2023-02-20T16:28:32;6.60;;;2.70;;
68509;SDS011;55512;50.102;19.958;2023-02-20T16:30:58;6.70;;;2.80;;
68509;SDS011;55512;50.102;19.958;2023-02-20T16:33:23;7.70;;;3.00;;
68509;SDS011;55512;50.102;19.958;2023-02-20T16:35:50;7.50;;;3.00;;
68509;SDS011;55512;50.102;19.958;2023-02-20T16:38:18;7.50;;;3.50;;
68509;SDS011;55512;50.102;19.958;2023-02-20T16:40:44;7.90;;;3.30;;
68509;SDS011;55512;50.102;19.958;2023-02-20T16:43:11;7.60;;;3.10;;
68509;SDS011;55512;50.102;19.958;2023-02-20T16:45:38;6.80;;;2.70;;
68509;SDS011;55512;50.102;19.958;2023-02-20T16:48:12;6.60;;;2.20;;
68509;SDS011;55512;50.102;19.958;2023-02-20T16:50:41;6.70;;;3.00;;
68509;SDS011;55512;50.102;19.958;2023-02-20T16:53:09;7.30;;;2.90;;
68509;SDS011;55512;50.102;19.958;2023-02-20T16:55:38;7.90;;;2.70;;
68509;SDS011;55512;50.102;19.958;2023-02-20T16:58:06;7.90;;;3.20;;
68509;SDS011;55512;50.102;19.958;2023-02-20T17:00:34;9.10;;;3.10;;
68509;SDS011;55512;50.102;19.958;2023-02-20T17:03:02;8.80;;;3.60;;
68509;SDS011;55512;50.102;19.958;2023-02-20T17:05:31;7.30;;;3.00;;